KIKK

Details ICAO KIKK (IKK)
Name GREATER KANKAKEE
Region United States
Timezone America/Chicago (UTC-5.0)
Plans Departing 14
Arriving 17
Stats Elevation 630 ft / 192 m (AMSL)
Location 41.071252° -87.845900°
Runways 2
Magnetic Variation 3.670° W
Sunrise 2018-05-25 10:26:39 UTC / 2018-05-25 05:26:39 Local
Sunset 2018-05-26 01:12:55 UTC / 2018-05-25 20:12:55 Local
Advertisement - Login to hide

Runways

ID Width Length Bearing (true) Bearing (mag) Surface Threshold Offset Overrun Length
04 100 ft / 30 m 5,961 ft / 1,817 m 37.98° 41.65° Asphalt 0 ft / 0 m 0 ft / 0 m
16 75 ft / 23 m 4,403 ft / 1,342 m 161.13° 164.80° Asphalt 0 ft / 0 m 0 ft / 0 m
22 100 ft / 30 m 5,961 ft / 1,817 m 217.99° 221.66° Asphalt 0 ft / 0 m 0 ft / 0 m
34 75 ft / 23 m 4,403 ft / 1,342 m 341.14° 344.81° Asphalt 0 ft / 0 m 0 ft / 0 m

Map

Weather


0- 5 10 15 20 25 30 35+ Temperature / ° C

Clouds and Precipitation
Forecast for 2018-05-26 00:00 UTC. Updated an hour ago

Ground ~20,000 ft ~40,000 ft Winds

METAR

KIKK 260035Z AUTO 00000KT 10SM OVC110 25/18 A2979 RMK AO2 T02450177

TAF

Not found

Frequencies

Unicom 123.00 MHz CTAF/UNICOM
Warning: Do not use this data for real-world aviation or navigation. No guarantee of current accuracy is given.